sensor_id;sensor_type;location;lat;lon;timestamp;P1;durP1;ratioP1;P2;durP2;ratioP2
21503;SDS011;10913;51.992;9.228;2023-03-05T00:01:08;17.85;;;7.20;;
21503;SDS011;10913;51.992;9.228;2023-03-05T00:03:35;8.27;;;3.10;;
21503;SDS011;10913;51.992;9.228;2023-03-05T00:06:00;8.70;;;2.85;;
21503;SDS011;10913;51.992;9.228;2023-03-05T00:08:27;8.13;;;2.97;;
21503;SDS011;10913;51.992;9.228;2023-03-05T00:10:56;9.20;;;2.97;;
21503;SDS011;10913;51.992;9.228;2023-03-05T00:13:26;11.38;;;2.53;;
21503;SDS011;10913;51.992;9.228;2023-03-05T00:15:52;10.38;;;2.95;;
21503;SDS011;10913;51.992;9.228;2023-03-05T00:18:17;8.65;;;2.47;;
21503;SDS011;10913;51.992;9.228;2023-03-05T00:20:43;9.13;;;2.90;;
21503;SDS011;10913;51.992;9.228;2023-03-05T00:23:08;8.32;;;2.40;;
21503;SDS011;10913;51.992;9.228;2023-03-05T00:25:34;9.80;;;2.78;;
21503;SDS011;10913;51.992;9.228;2023-03-05T00:28:00;9.65;;;2.05;;
21503;SDS011;10913;51.992;9.228;2023-03-05T00:30:26;8.50;;;2.30;;
21503;SDS011;10913;51.992;9.228;2023-03-05T00:32:51;9.25;;;2.83;;
21503;SDS011;10913;51.992;9.228;2023-03-05T00:35:16;10.35;;;2.83;;
21503;SDS011;10913;51.992;9.228;2023-03-05T00:37:42;8.52;;;2.30;;
21503;SDS011;10913;51.992;9.228;2023-03-05T00:40:07;7.82;;;2.80;;
21503;SDS011;10913;51.992;9.228;2023-03-05T00:42:33;8.93;;;2.42;;
21503;SDS011;10913;51.992;9.228;2023-03-05T00:45:02;10.07;;;2.40;;
21503;SDS011;10913;51.992;9.228;2023-03-05T00:47:29;8.07;;;2.50;;
21503;SDS011;10913;51.992;9.228;2023-03-05T00:49:54;8.98;;;2.63;;
21503;SDS011;10913;51.992;9.228;2023-03-05T00:52:19;12.43;;;2.75;;
21503;SDS011;10913;51.992;9.228;2023-03-05T00:54:45;5.70;;;1.98;;
21503;SDS011;10913;51.992;9.228;2023-03-05T00:57:10;10.27;;;2.80;;
21503;SDS011;10913;51.992;9.228;2023-03-05T00:59:35;9.68;;;2.50;;
21503;SDS011;10913;51.992;9.228;2023-03-05T01:02:01;9.13;;;2.40;;
21503;SDS011;10913;51.992;9.228;2023-03-05T01:04:26;8.13;;;2.13;;
21503;SDS011;10913;51.992;9.228;2023-03-05T01:06:52;10.15;;;2.40;;
21503;SDS011;10913;51.992;9.228;2023-03-05T01:09:17;10.73;;;3.03;;
21503;SDS011;10913;51.992;9.228;2023-03-05T01:11:43;11.07;;;2.58;;
21503;SDS011;10913;51.992;9.228;2023-03-05T01:14:08;8.23;;;2.63;;
21503;SDS011;10913;51.992;9.228;2023-03-05T01:16:33;7.25;;;2.38;;
21503;SDS011;10913;51.992;9.228;2023-03-05T01:18:59;6.43;;;2.60;;
21503;SDS011;10913;51.992;9.228;2023-03-05T01:21:24;11.57;;;3.13;;
21503;SDS011;10913;51.992;9.228;2023-03-05T01:23:49;9.32;;;2.67;;
21503;SDS011;10913;51.992;9.228;2023-03-05T01:26:15;8.65;;;2.40;;
21503;SDS011;10913;51.992;9.228;2023-03-05T01:28:41;7.32;;;2.58;;
21503;SDS011;10913;51.992;9.228;2023-03-05T01:31:07;9.30;;;2.85;;
21503;SDS011;10913;51.992;9.228;2023-03-05T01:33:34;11.73;;;2.83;;
21503;SDS011;10913;51.992;9.228;2023-03-05T01:35:59;7.65;;;2.35;;
21503;SDS011;10913;51.992;9.228;2023-03-05T01:38:24;8.23;;;3.47;;
21503;SDS011;10913;51.992;9.228;2023-03-05T01:40:50;9.18;;;3.20;;
21503;SDS011;10913;51.992;9.228;2023-03-05T01:43:26;8.82;;;3.55;;
21503;SDS011;10913;51.992;9.228;2023-03-05T01:48:55;7.07;;;2.90;;
21503;SDS011;10913;51.992;9.228;2023-03-05T01:51:24;9.40;;;3.53;;
21503;SDS011;10913;51.992;9.228;2023-03-05T01:53:52;8.82;;;3.38;;
21503;SDS011;10913;51.992;9.228;2023-03-05T01:56:19;7.97;;;3.05;;
21503;SDS011;10913;51.992;9.228;2023-03-05T01:58:45;13.30;;;3.67;;
21503;SDS011;10913;51.992;9.228;2023-03-05T02:01:11;9.60;;;3.60;;
21503;SDS011;10913;51.992;9.228;2023-03-05T02:03:36;10.07;;;3.42;;
21503;SDS011;10913;51.992;9.228;2023-03-05T02:06:02;8.43;;;2.95;;
21503;SDS011;10913;51.992;9.228;2023-03-05T02:08:31;9.00;;;3.42;;
21503;SDS011;10913;51.992;9.228;2023-03-05T02:10:56;6.95;;;2.83;;
21503;SDS011;10913;51.992;9.228;2023-03-05T02:13:22;8.57;;;3.33;;
21503;SDS011;10913;51.992;9.228;2023-03-05T02:15:50;7.32;;;3.10;;
21503;SDS011;10913;51.992;9.228;2023-03-05T02:18:17;8.07;;;3.17;;
21503;SDS011;10913;51.992;9.228;2023-03-05T02:23:15;7.05;;;3.42;;
21503;SDS011;10913;51.992;9.228;2023-03-05T02:25:43;6.78;;;3.10;;
21503;SDS011;10913;51.992;9.228;2023-03-05T02:28:17;9.18;;;3.38;;
21503;SDS011;10913;51.992;9.228;2023-03-05T02:30:47;10.25;;;3.78;;
21503;SDS011;10913;51.992;9.228;2023-03-05T02:33:13;12.25;;;3.78;;
21503;SDS011;10913;51.992;9.228;2023-03-05T02:35:40;11.90;;;4.43;;
21503;SDS011;10913;51.992;9.228;2023-03-05T02:38:07;10.43;;;4.15;;
21503;SDS011;10913;51.992;9.228;2023-03-05T02:40:33;10.48;;;4.10;;
21503;SDS011;10913;51.992;9.228;2023-03-05T02:42:58;8.82;;;3.65;;
21503;SDS011;10913;51.992;9.228;2023-03-05T02:45:24;10.95;;;4.13;;
21503;SDS011;10913;51.992;9.228;2023-03-05T02:47:49;6.80;;;4.00;;
21503;SDS011;10913;51.992;9.228;2023-03-05T02:50:14;11.68;;;4.38;;
21503;SDS011;10913;51.992;9.228;2023-03-05T02:52:40;9.10;;;4.57;;
21503;SDS011;10913;51.992;9.228;2023-03-05T02:55:06;8.88;;;4.22;;
21503;SDS011;10913;51.992;9.228;2023-03-05T02:57:31;11.85;;;4.78;;
21503;SDS011;10913;51.992;9.228;2023-03-05T02:59:57;11.27;;;4.55;;
21503;SDS011;10913;51.992;9.228;2023-03-05T03:02:22;10.88;;;4.88;;
21503;SDS011;10913;51.992;9.228;2023-03-05T03:04:48;9.63;;;4.32;;
21503;SDS011;10913;51.992;9.228;2023-03-05T03:07:13;10.13;;;4.80;;
21503;SDS011;10913;51.992;9.228;2023-03-05T03:09:39;11.23;;;5.57;;
21503;SDS011;10913;51.992;9.228;2023-03-05T03:12:07;11.95;;;5.35;;
21503;SDS011;10913;51.992;9.228;2023-03-05T03:14:37;10.30;;;5.18;;
21503;SDS011;10913;51.992;9.228;2023-03-05T03:17:09;14.07;;;5.22;;
21503;SDS011;10913;51.992;9.228;2023-03-05T03:19:36;9.07;;;5.05;;
21503;SDS011;10913;51.992;9.228;2023-03-05T03:22:02;10.05;;;5.10;;
21503;SDS011;10913;51.992;9.228;2023-03-05T03:24:29;12.52;;;5.10;;
21503;SDS011;10913;51.992;9.228;2023-03-05T03:26:56;10.13;;;5.35;;
21503;SDS011;10913;51.992;9.228;2023-03-05T03:29:21;13.57;;;5.50;;
21503;SDS011;10913;51.992;9.228;2023-03-05T03:31:47;9.05;;;4.55;;
21503;SDS011;10913;51.992;9.228;2023-03-05T03:34:13;11.45;;;4.97;;
21503;SDS011;10913;51.992;9.228;2023-03-05T03:36:39;13.13;;;4.95;;
21503;SDS011;10913;51.992;9.228;2023-03-05T03:39:06;11.13;;;4.57;;
21503;SDS011;10913;51.992;9.228;2023-03-05T03:41:33;10.10;;;4.25;;
21503;SDS011;10913;51.992;9.228;2023-03-05T03:43:59;10.85;;;4.63;;
21503;SDS011;10913;51.992;9.228;2023-03-05T03:46:27;12.18;;;5.60;;
21503;SDS011;10913;51.992;9.228;2023-03-05T03:48:52;9.90;;;4.63;;
21503;SDS011;10913;51.992;9.228;2023-03-05T03:51:17;10.82;;;4.72;;
21503;SDS011;10913;51.992;9.228;2023-03-05T03:53:43;12.18;;;5.00;;
21503;SDS011;10913;51.992;9.228;2023-03-05T03:56:08;11.15;;;4.40;;
21503;SDS011;10913;51.992;9.228;2023-03-05T03:58:34;8.82;;;4.35;;
21503;SDS011;10913;51.992;9.228;2023-03-05T04:00:59;11.48;;;4.97;;
21503;SDS011;10913;51.992;9.228;2023-03-05T04:03:25;10.77;;;4.55;;
21503;SDS011;10913;51.992;9.228;2023-03-05T04:05:50;7.18;;;4.05;;
21503;SDS011;10913;51.992;9.228;2023-03-05T04:08:16;9.10;;;4.40;;
21503;SDS011;10913;51.992;9.228;2023-03-05T04:10:41;7.82;;;4.10;;
21503;SDS011;10913;51.992;9.228;2023-03-05T04:13:06;8.60;;;4.30;;
21503;SDS011;10913;51.992;9.228;2023-03-05T04:15:32;10.68;;;4.78;;
21503;SDS011;10913;51.992;9.228;2023-03-05T04:17:58;11.73;;;4.72;;
21503;SDS011;10913;51.992;9.228;2023-03-05T04:20:23;10.48;;;4.45;;
21503;SDS011;10913;51.992;9.228;2023-03-05T04:22:49;10.10;;;4.22;;
21503;SDS011;10913;51.992;9.228;2023-03-05T04:25:15;8.85;;;4.40;;
21503;SDS011;10913;51.992;9.228;2023-03-05T04:27:40;12.20;;;4.78;;
21503;SDS011;10913;51.992;9.228;2023-03-05T04:30:06;7.88;;;4.13;;
21503;SDS011;10913;51.992;9.228;2023-03-05T04:32:33;9.43;;;4.78;;
21503;SDS011;10913;51.992;9.228;2023-03-05T04:34:58;8.52;;;4.55;;
21503;SDS011;10913;51.992;9.228;2023-03-05T04:37:24;10.93;;;4.30;;
21503;SDS011;10913;51.992;9.228;2023-03-05T04:39:53;11.88;;;4.88;;
21503;SDS011;10913;51.992;9.228;2023-03-05T04:42:18;8.88;;;4.30;;
21503;SDS011;10913;51.992;9.228;2023-03-05T04:44:46;9.90;;;4.30;;
21503;SDS011;10913;51.992;9.228;2023-03-05T04:47:12;12.00;;;4.32;;
21503;SDS011;10913;51.992;9.228;2023-03-05T04:49:38;10.30;;;4.60;;
21503;SDS011;10913;51.992;9.228;2023-03-05T04:52:03;10.75;;;3.80;;
21503;SDS011;10913;51.992;9.228;2023-03-05T04:54:29;8.52;;;4.18;;
21503;SDS011;10913;51.992;9.228;2023-03-05T04:56:54;11.32;;;4.10;;
21503;SDS011;10913;51.992;9.228;2023-03-05T04:59:19;8.63;;;3.85;;
21503;SDS011;10913;51.992;9.228;2023-03-05T05:01:45;8.85;;;3.90;;
21503;SDS011;10913;51.992;9.228;2023-03-05T05:04:10;9.20;;;3.88;;
21503;SDS011;10913;51.992;9.228;2023-03-05T05:06:35;10.63;;;4.50;;
21503;SDS011;10913;51.992;9.228;2023-03-05T05:09:01;8.57;;;4.32;;
21503;SDS011;10913;51.992;9.228;2023-03-05T05:11:27;10.65;;;4.38;;
21503;SDS011;10913;51.992;9.228;2023-03-05T05:13:52;8.52;;;4.35;;
21503;SDS011;10913;51.992;9.228;2023-03-05T05:16:17;8.20;;;3.75;;
21503;SDS011;10913;51.992;9.228;2023-03-05T05:18:43;10.70;;;4.15;;
21503;SDS011;10913;51.992;9.228;2023-03-05T05:21:09;7.50;;;3.53;;
21503;SDS011;10913;51.992;9.228;2023-03-05T05:23:36;9.25;;;3.72;;
21503;SDS011;10913;51.992;9.228;2023-03-05T05:26:02;7.05;;;3.55;;
21503;SDS011;10913;51.992;9.228;2023-03-05T05:28:29;6.43;;;3.88;;
21503;SDS011;10913;51.992;9.228;2023-03-05T05:30:55;7.78;;;3.30;;
21503;SDS011;10913;51.992;9.228;2023-03-05T05:33:21;8.20;;;3.40;;
21503;SDS011;10913;51.992;9.228;2023-03-05T05:35:47;9.18;;;4.00;;
21503;SDS011;10913;51.992;9.228;2023-03-05T05:38:12;5.50;;;3.70;;
21503;SDS011;10913;51.992;9.228;2023-03-05T05:40:38;10.75;;;3.75;;
21503;SDS011;10913;51.992;9.228;2023-03-05T05:43:03;5.82;;;3.35;;
21503;SDS011;10913;51.992;9.228;2023-03-05T05:45:29;8.98;;;3.53;;
21503;SDS011;10913;51.992;9.228;2023-03-05T05:47:55;7.47;;;3.72;;
21503;SDS011;10913;51.992;9.228;2023-03-05T05:50:20;6.60;;;3.70;;
21503;SDS011;10913;51.992;9.228;2023-03-05T05:52:45;7.38;;;3.60;;
21503;SDS011;10913;51.992;9.228;2023-03-05T05:55:11;4.97;;;3.55;;
21503;SDS011;10913;51.992;9.228;2023-03-05T05:57:37;8.60;;;3.88;;
21503;SDS011;10913;51.992;9.228;2023-03-05T06:00:07;6.47;;;3.38;;
21503;SDS011;10913;51.992;9.228;2023-03-05T06:02:37;7.75;;;3.65;;
21503;SDS011;10913;51.992;9.228;2023-03-05T06:05:03;6.15;;;3.42;;
21503;SDS011;10913;51.992;9.228;2023-03-05T06:07:29;8.23;;;3.58;;
21503;SDS011;10913;51.992;9.228;2023-03-05T06:09:55;8.30;;;3.13;;
21503;SDS011;10913;51.992;9.228;2023-03-05T06:12:21;6.35;;;3.13;;
21503;SDS011;10913;51.992;9.228;2023-03-05T06:14:46;5.35;;;3.20;;
21503;SDS011;10913;51.992;9.228;2023-03-05T06:17:11;4.90;;;3.30;;
21503;SDS011;10913;51.992;9.228;2023-03-05T06:19:37;7.15;;;3.30;;
21503;SDS011;10913;51.992;9.228;2023-03-05T06:22:02;5.70;;;3.17;;
21503;SDS011;10913;51.992;9.228;2023-03-05T06:24:28;7.35;;;3.80;;
21503;SDS011;10913;51.992;9.228;2023-03-05T06:26:53;7.88;;;3.50;;
21503;SDS011;10913;51.992;9.228;2023-03-05T06:29:18;5.57;;;3.10;;
21503;SDS011;10913;51.992;9.228;2023-03-05T06:31:43;7.47;;;3.25;;
21503;SDS011;10913;51.992;9.228;2023-03-05T06:34:09;6.30;;;3.53;;
21503;SDS011;10913;51.992;9.228;2023-03-05T06:36:34;5.57;;;3.50;;
21503;SDS011;10913;51.992;9.228;2023-03-05T06:39:00;5.65;;;3.15;;
21503;SDS011;10913;51.992;9.228;2023-03-05T06:41:27;9.52;;;4.07;;
21503;SDS011;10913;51.992;9.228;2023-03-05T06:43:54;7.35;;;3.60;;
21503;SDS011;10913;51.992;9.228;2023-03-05T06:46:22;6.20;;;3.67;;
21503;SDS011;10913;51.992;9.228;2023-03-05T06:48:53;8.68;;;3.63;;
21503;SDS011;10913;51.992;9.228;2023-03-05T06:51:24;7.65;;;3.78;;
21503;SDS011;10913;51.992;9.228;2023-03-05T06:53:52;5.78;;;3.72;;
21503;SDS011;10913;51.992;9.228;2023-03-05T06:56:18;7.53;;;3.92;;
21503;SDS011;10913;51.992;9.228;2023-03-05T06:58:45;8.55;;;3.53;;
21503;SDS011;10913;51.992;9.228;2023-03-05T07:01:13;6.90;;;3.80;;
21503;SDS011;10913;51.992;9.228;2023-03-05T07:03:39;6.00;;;3.60;;
21503;SDS011;10913;51.992;9.228;2023-03-05T07:06:06;7.32;;;3.78;;
21503;SDS011;10913;51.992;9.228;2023-03-05T07:08:37;6.00;;;3.42;;
21503;SDS011;10913;51.992;9.228;2023-03-05T07:11:06;6.63;;;3.50;;
21503;SDS011;10913;51.992;9.228;2023-03-05T07:13:33;6.22;;;2.97;;
21503;SDS011;10913;51.992;9.228;2023-03-05T07:15:59;6.30;;;3.00;;
21503;SDS011;10913;51.992;9.228;2023-03-05T07:18:29;6.35;;;3.30;;
21503;SDS011;10913;51.992;9.228;2023-03-05T07:20:55;5.57;;;3.20;;
21503;SDS011;10913;51.992;9.228;2023-03-05T07:23:20;6.25;;;3.25;;
21503;SDS011;10913;51.992;9.228;2023-03-05T07:25:45;5.35;;;2.80;;
21503;SDS011;10913;51.992;9.228;2023-03-05T07:28:11;4.72;;;3.20;;
21503;SDS011;10913;51.992;9.228;2023-03-05T07:30:36;5.18;;;2.85;;
21503;SDS011;10913;51.992;9.228;2023-03-05T07:33:01;4.15;;;2.72;;
21503;SDS011;10913;51.992;9.228;2023-03-05T07:35:27;6.40;;;2.97;;
21503;SDS011;10913;51.992;9.228;2023-03-05T07:37:52;4.57;;;2.60;;
21503;SDS011;10913;51.992;9.228;2023-03-05T07:40:19;4.57;;;2.38;;
21503;SDS011;10913;51.992;9.228;2023-03-05T07:42:45;8.55;;;2.90;;
21503;SDS011;10913;51.992;9.228;2023-03-05T07:45:10;6.30;;;3.25;;
21503;SDS011;10913;51.992;9.228;2023-03-05T07:47:35;6.25;;;3.22;;
21503;SDS011;10913;51.992;9.228;2023-03-05T07:50:01;4.50;;;2.50;;
21503;SDS011;10913;51.992;9.228;2023-03-05T07:52:27;3.47;;;2.50;;
21503;SDS011;10913;51.992;9.228;2023-03-05T07:54:53;4.68;;;2.70;;
21503;SDS011;10913;51.992;9.228;2023-03-05T07:57:18;4.63;;;3.03;;
21503;SDS011;10913;51.992;9.228;2023-03-05T07:59:44;6.00;;;3.03;;
21503;SDS011;10913;51.992;9.228;2023-03-05T08:02:10;6.68;;;2.80;;
21503;SDS011;10913;51.992;9.228;2023-03-05T08:04:36;5.93;;;2.97;;
21503;SDS011;10913;51.992;9.228;2023-03-05T08:07:02;5.35;;;2.70;;
21503;SDS011;10913;51.992;9.228;2023-03-05T08:09:28;4.88;;;2.45;;
21503;SDS011;10913;51.992;9.228;2023-03-05T08:11:53;6.93;;;2.80;;
21503;SDS011;10913;51.992;9.228;2023-03-05T08:14:18;5.80;;;2.60;;
21503;SDS011;10913;51.992;9.228;2023-03-05T08:16:44;4.97;;;2.53;;
21503;SDS011;10913;51.992;9.228;2023-03-05T08:19:10;3.78;;;2.40;;
21503;SDS011;10913;51.992;9.228;2023-03-05T08:21:36;6.93;;;3.00;;
21503;SDS011;10913;51.992;9.228;2023-03-05T08:24:02;4.63;;;2.65;;
21503;SDS011;10913;51.992;9.228;2023-03-05T08:26:32;5.90;;;2.40;;
21503;SDS011;10913;51.992;9.228;2023-03-05T08:28:59;4.25;;;2.35;;
21503;SDS011;10913;51.992;9.228;2023-03-05T08:31:26;3.65;;;2.22;;
21503;SDS011;10913;51.992;9.228;2023-03-05T08:33:54;4.00;;;2.42;;
21503;SDS011;10913;51.992;9.228;2023-03-05T08:36:20;2.97;;;2.28;;
21503;SDS011;10913;51.992;9.228;2023-03-05T08:38:46;4.85;;;2.30;;
21503;SDS011;10913;51.992;9.228;2023-03-05T08:41:13;3.50;;;2.55;;
21503;SDS011;10913;51.992;9.228;2023-03-05T08:43:39;3.30;;;2.53;;
21503;SDS011;10913;51.992;9.228;2023-03-05T08:46:05;4.13;;;2.30;;
21503;SDS011;10913;51.992;9.228;2023-03-05T08:48:31;5.95;;;2.28;;
21503;SDS011;10913;51.992;9.228;2023-03-05T08:50:57;6.60;;;2.83;;
21503;SDS011;10913;51.992;9.228;2023-03-05T08:53:28;5.85;;;2.95;;
21503;SDS011;10913;51.992;9.228;2023-03-05T08:55:54;6.00;;;2.95;;
21503;SDS011;10913;51.992;9.228;2023-03-05T08:58:20;7.28;;;2.78;;
21503;SDS011;10913;51.992;9.228;2023-03-05T09:00:45;3.63;;;2.53;;
21503;SDS011;10913;51.992;9.228;2023-03-05T09:03:11;5.00;;;2.33;;
21503;SDS011;10913;51.992;9.228;2023-03-05T09:05:36;4.03;;;2.30;;
21503;SDS011;10913;51.992;9.228;2023-03-05T09:08:01;3.03;;;2.20;;
21503;SDS011;10913;51.992;9.228;2023-03-05T09:10:26;3.53;;;2.00;;
21503;SDS011;10913;51.992;9.228;2023-03-05T09:12:52;3.55;;;2.53;;
21503;SDS011;10913;51.992;9.228;2023-03-05T09:15:17;4.20;;;2.70;;
21503;SDS011;10913;51.992;9.228;2023-03-05T09:17:43;4.30;;;2.42;;
21503;SDS011;10913;51.992;9.228;2023-03-05T09:20:10;5.47;;;2.47;;
21503;SDS011;10913;51.992;9.228;2023-03-05T09:22:37;4.70;;;2.97;;
21503;SDS011;10913;51.992;9.228;2023-03-05T09:25:02;4.13;;;2.20;;
21503;SDS011;10913;51.992;9.228;2023-03-05T09:27:27;3.75;;;2.17;;
21503;SDS011;10913;51.992;9.228;2023-03-05T09:29:53;4.00;;;2.30;;
21503;SDS011;10913;51.992;9.228;2023-03-05T09:32:19;3.00;;;1.85;;
21503;SDS011;10913;51.992;9.228;2023-03-05T09:34:45;2.53;;;2.08;;
21503;SDS011;10913;51.992;9.228;2023-03-05T09:37:10;4.57;;;2.10;;
21503;SDS011;10913;51.992;9.228;2023-03-05T09:39:35;4.88;;;2.30;;
21503;SDS011;10913;51.992;9.228;2023-03-05T09:47:48;5.82;;;2.10;;
21503;SDS011;10913;51.992;9.228;2023-03-05T09:50:35;4.40;;;1.95;;
21503;SDS011;10913;51.992;9.228;2023-03-05T09:53:20;4.45;;;2.00;;
21503;SDS011;10913;51.992;9.228;2023-03-05T09:55:51;2.72;;;1.58;;
21503;SDS011;10913;51.992;9.228;2023-03-05T09:58:24;4.43;;;2.00;;
21503;SDS011;10913;51.992;9.228;2023-03-05T10:00:56;2.70;;;1.50;;
21503;SDS011;10913;51.992;9.228;2023-03-05T10:04:09;3.90;;;1.70;;
21503;SDS011;10913;51.992;9.228;2023-03-05T10:06:58;3.50;;;1.90;;
21503;SDS011;10913;51.992;9.228;2023-03-05T10:12:38;3.63;;;1.98;;
21503;SDS011;10913;51.992;9.228;2023-03-05T10:15:15;4.05;;;1.92;;
21503;SDS011;10913;51.992;9.228;2023-03-05T10:20:57;3.85;;;2.20;;
21503;SDS011;10913;51.992;9.228;2023-03-05T10:26:11;4.22;;;1.98;;
21503;SDS011;10913;51.992;9.228;2023-03-05T10:28:56;2.80;;;1.95;;
21503;SDS011;10913;51.992;9.228;2023-03-05T10:34:39;3.70;;;2.03;;
21503;SDS011;10913;51.992;9.228;2023-03-05T10:37:20;5.20;;;2.30;;
21503;SDS011;10913;51.992;9.228;2023-03-05T10:45:23;4.45;;;2.28;;
21503;SDS011;10913;51.992;9.228;2023-03-05T10:50:41;5.57;;;2.70;;
21503;SDS011;10913;51.992;9.228;2023-03-05T10:53:28;3.20;;;1.90;;
21503;SDS011;10913;51.992;9.228;2023-03-05T10:56:02;4.60;;;1.90;;
21503;SDS011;10913;51.992;9.228;2023-03-05T10:58:29;5.40;;;2.00;;
21503;SDS011;10913;51.992;9.228;2023-03-05T11:00:59;3.45;;;1.83;;
21503;SDS011;10913;51.992;9.228;2023-03-05T11:06:49;7.40;;;3.00;;
21503;SDS011;10913;51.992;9.228;2023-03-05T11:09:22;4.65;;;2.03;;
21503;SDS011;10913;51.992;9.228;2023-03-05T11:12:17;2.28;;;1.67;;
21503;SDS011;10913;51.992;9.228;2023-03-05T11:15:01;6.15;;;1.80;;
21503;SDS011;10913;51.992;9.228;2023-03-05T11:17:34;3.10;;;1.40;;
21503;SDS011;10913;51.992;9.228;2023-03-05T11:20:48;2.25;;;1.50;;
21503;SDS011;10913;51.992;9.228;2023-03-05T11:28:19;1.58;;;1.30;;
21503;SDS011;10913;51.992;9.228;2023-03-05T11:30:58;3.58;;;1.67;;
21503;SDS011;10913;51.992;9.228;2023-03-05T11:33:39;3.00;;;2.15;;
21503;SDS011;10913;51.992;9.228;2023-03-05T11:36:20;4.18;;;2.80;;
21503;SDS011;10913;51.992;9.228;2023-03-05T11:41:20;3.05;;;2.00;;
21503;SDS011;10913;51.992;9.228;2023-03-05T11:43:55;2.85;;;2.10;;
21503;SDS011;10913;51.992;9.228;2023-03-05T11:46:22;5.72;;;4.00;;
21503;SDS011;10913;51.992;9.228;2023-03-05T11:48:49;4.25;;;2.90;;
21503;SDS011;10913;51.992;9.228;2023-03-05T11:51:20;3.80;;;2.60;;
21503;SDS011;10913;51.992;9.228;2023-03-05T11:53:50;3.30;;;1.80;;
21503;SDS011;10913;51.992;9.228;2023-03-05T11:58:59;3.42;;;1.98;;
21503;SDS011;10913;51.992;9.228;2023-03-05T12:01:41;2.42;;;1.65;;
21503;SDS011;10913;51.992;9.228;2023-03-05T12:04:10;2.33;;;1.70;;
21503;SDS011;10913;51.992;9.228;2023-03-05T12:09:28;2.90;;;1.65;;
21503;SDS011;10913;51.992;9.228;2023-03-05T12:15:21;3.53;;;1.60;;
21503;SDS011;10913;51.992;9.228;2023-03-05T12:23:25;2.60;;;1.70;;
21503;SDS011;10913;51.992;9.228;2023-03-05T12:25:53;1.65;;;1.42;;
21503;SDS011;10913;51.992;9.228;2023-03-05T12:33:38;2.28;;;1.40;;
21503;SDS011;10913;51.992;9.228;2023-03-05T12:44:07;2.45;;;1.27;;
21503;SDS011;10913;51.992;9.228;2023-03-05T12:51:45;3.80;;;1.95;;
21503;SDS011;10913;51.992;9.228;2023-03-05T12:56:53;3.47;;;1.90;;
21503;SDS011;10913;51.992;9.228;2023-03-05T12:59:22;2.75;;;2.00;;
21503;SDS011;10913;51.992;9.228;2023-03-05T13:02:00;2.97;;;2.05;;
21503;SDS011;10913;51.992;9.228;2023-03-05T13:04:38;3.10;;;2.05;;
21503;SDS011;10913;51.992;9.228;2023-03-05T13:07:15;2.10;;;1.80;;
21503;SDS011;10913;51.992;9.228;2023-03-05T13:09:52;4.00;;;2.05;;
21503;SDS011;10913;51.992;9.228;2023-03-05T13:12:19;4.45;;;2.20;;
21503;SDS011;10913;51.992;9.228;2023-03-05T13:14:46;2.22;;;1.80;;
21503;SDS011;10913;51.992;9.228;2023-03-05T13:20:00;1.60;;;1.50;;
21503;SDS011;10913;51.992;9.228;2023-03-05T13:22:30;3.00;;;1.90;;
21503;SDS011;10913;51.992;9.228;2023-03-05T13:25:03;2.58;;;1.90;;
21503;SDS011;10913;51.992;9.228;2023-03-05T13:27:39;3.00;;;1.70;;
21503;SDS011;10913;51.992;9.228;2023-03-05T13:30:18;1.65;;;1.50;;
21503;SDS011;10913;51.992;9.228;2023-03-05T13:32:48;1.83;;;1.52;;
21503;SDS011;10913;51.992;9.228;2023-03-05T13:35:16;2.13;;;1.52;;
21503;SDS011;10913;51.992;9.228;2023-03-05T13:37:42;2.70;;;1.70;;
21503;SDS011;10913;51.992;9.228;2023-03-05T13:42:48;2.00;;;1.63;;
21503;SDS011;10913;51.992;9.228;2023-03-05T13:45:26;2.75;;;1.80;;
21503;SDS011;10913;51.992;9.228;2023-03-05T13:50:28;2.20;;;1.90;;
21503;SDS011;10913;51.992;9.228;2023-03-05T13:52:59;2.22;;;1.50;;
21503;SDS011;10913;51.992;9.228;2023-03-05T14:01:12;2.70;;;1.50;;
21503;SDS011;10913;51.992;9.228;2023-03-05T14:03:38;2.15;;;1.42;;
21503;SDS011;10913;51.992;9.228;2023-03-05T14:06:10;2.92;;;1.73;;
21503;SDS011;10913;51.992;9.228;2023-03-05T14:08:37;2.70;;;1.58;;
21503;SDS011;10913;51.992;9.228;2023-03-05T14:11:13;4.38;;;1.50;;
21503;SDS011;10913;51.992;9.228;2023-03-05T14:13:40;2.35;;;1.38;;
21503;SDS011;10913;51.992;9.228;2023-03-05T14:16:07;3.80;;;1.50;;
21503;SDS011;10913;51.992;9.228;2023-03-05T14:18:57;1.50;;;1.38;;
21503;SDS011;10913;51.992;9.228;2023-03-05T14:21:43;3.05;;;1.60;;
21503;SDS011;10913;51.992;9.228;2023-03-05T14:24:19;2.15;;;1.20;;
21503;SDS011;10913;51.992;9.228;2023-03-05T14:29:20;3.22;;;1.50;;
21503;SDS011;10913;51.992;9.228;2023-03-05T14:36:55;2.33;;;1.40;;
21503;SDS011;10913;51.992;9.228;2023-03-05T14:44:50;1.88;;;1.20;;
21503;SDS011;10913;51.992;9.228;2023-03-05T14:47:16;2.17;;;1.20;;
21503;SDS011;10913;51.992;9.228;2023-03-05T14:49:41;1.67;;;1.40;;
21503;SDS011;10913;51.992;9.228;2023-03-05T14:52:08;2.67;;;1.77;;
21503;SDS011;10913;51.992;9.228;2023-03-05T14:54:38;2.03;;;1.33;;
21503;SDS011;10913;51.992;9.228;2023-03-05T14:57:04;1.70;;;1.15;;
21503;SDS011;10913;51.992;9.228;2023-03-05T14:59:30;1.98;;;1.10;;
21503;SDS011;10913;51.992;9.228;2023-03-05T15:01:55;3.20;;;1.30;;
21503;SDS011;10913;51.992;9.228;2023-03-05T15:04:21;1.70;;;1.27;;
21503;SDS011;10913;51.992;9.228;2023-03-05T15:06:47;2.28;;;1.10;;
21503;SDS011;10913;51.992;9.228;2023-03-05T15:09:15;2.72;;;1.77;;
21503;SDS011;10913;51.992;9.228;2023-03-05T15:11:44;2.05;;;1.50;;
21503;SDS011;10913;51.992;9.228;2023-03-05T15:14:10;2.55;;;1.60;;
21503;SDS011;10913;51.992;9.228;2023-03-05T15:16:37;5.78;;;4.00;;
21503;SDS011;10913;51.992;9.228;2023-03-05T15:19:05;1.90;;;1.63;;
21503;SDS011;10913;51.992;9.228;2023-03-05T15:21:31;2.33;;;1.95;;
21503;SDS011;10913;51.992;9.228;2023-03-05T15:23:56;2.85;;;2.00;;
21503;SDS011;10913;51.992;9.228;2023-03-05T15:26:21;4.88;;;3.60;;
21503;SDS011;10913;51.992;9.228;2023-03-05T15:28:47;4.43;;;1.70;;
21503;SDS011;10913;51.992;9.228;2023-03-05T15:31:12;1.67;;;1.25;;
21503;SDS011;10913;51.992;9.228;2023-03-05T15:33:41;1.10;;;1.00;;
21503;SDS011;10913;51.992;9.228;2023-03-05T15:36:06;1.35;;;1.20;;
21503;SDS011;10913;51.992;9.228;2023-03-05T15:38:33;2.42;;;1.27;;
21503;SDS011;10913;51.992;9.228;2023-03-05T15:40:59;2.53;;;1.42;;
21503;SDS011;10913;51.992;9.228;2023-03-05T15:43:24;2.15;;;1.60;;
21503;SDS011;10913;51.992;9.228;2023-03-05T15:45:50;1.65;;;1.52;;
21503;SDS011;10913;51.992;9.228;2023-03-05T15:48:15;2.33;;;1.63;;
21503;SDS011;10913;51.992;9.228;2023-03-05T15:50:44;3.33;;;1.20;;
21503;SDS011;10913;51.992;9.228;2023-03-05T15:53:10;3.15;;;1.30;;
21503;SDS011;10913;51.992;9.228;2023-03-05T15:55:38;3.17;;;1.30;;
21503;SDS011;10913;51.992;9.228;2023-03-05T15:58:04;1.30;;;1.20;;
21503;SDS011;10913;51.992;9.228;2023-03-05T16:00:30;2.90;;;1.42;;
21503;SDS011;10913;51.992;9.228;2023-03-05T16:02:58;1.83;;;1.30;;
21503;SDS011;10913;51.992;9.228;2023-03-05T16:05:23;2.20;;;1.40;;
21503;SDS011;10913;51.992;9.228;2023-03-05T16:07:49;1.60;;;1.50;;
21503;SDS011;10913;51.992;9.228;2023-03-05T16:10:16;2.88;;;1.30;;
21503;SDS011;10913;51.992;9.228;2023-03-05T16:12:46;2.53;;;1.40;;
21503;SDS011;10913;51.992;9.228;2023-03-05T16:15:16;2.22;;;1.45;;
21503;SDS011;10913;51.992;9.228;2023-03-05T16:17:45;3.83;;;1.73;;
21503;SDS011;10913;51.992;9.228;2023-03-05T16:20:13;3.15;;;1.50;;
21503;SDS011;10913;51.992;9.228;2023-03-05T16:22:39;2.10;;;1.58;;
21503;SDS011;10913;51.992;9.228;2023-03-05T16:25:05;6.20;;;1.55;;
21503;SDS011;10913;51.992;9.228;2023-03-05T16:27:31;2.65;;;1.50;;
21503;SDS011;10913;51.992;9.228;2023-03-05T16:29:56;2.03;;;1.45;;
21503;SDS011;10913;51.992;9.228;2023-03-05T16:32:22;3.33;;;1.60;;
21503;SDS011;10913;51.992;9.228;2023-03-05T16:34:48;4.00;;;1.73;;